Time;durP1;ratioP1;P1;durP2;ratioP2;P2;SDS_P1;SDS_P2;PMS_P1;PMS_P2;Temp;Humidity;BMP_temperature;BMP_pressure;BME280_temperature;BME280_humidity;BME280_pressure;Samples;Min_cycle;Max_cycle;Signal;HPM_P1;HPM_P2
2023/01/16 00:02:00;;;;;;;10.55;6.85;;;;;;;;;;6177034;23;20103;-77
2023/01/16 00:04:27;;;;;;;9.80;7.07;;;;;;;;;;6200982;23;20405;-78
2023/01/16 00:06:53;;;;;;;10.57;7.03;;;;;;;;;;6174515;23;20020;-78
2023/01/16 00:09:19;;;;;;;10.27;6.65;;;;;;;;;;6200173;23;20023;-78
2023/01/16 00:11:46;;;;;;;12.75;6.97;;;;;;;;;;6226244;23;20023;-78
2023/01/16 00:14:12;;;;;;;14.65;6.10;;;;;;;;;;6226078;23;20095;-78
2023/01/16 00:16:38;;;;;;;7.30;5.63;;;;;;;;;;6175369;23;20234;-78
2023/01/16 00:19:04;;;;;;;9.93;6.18;;;;;;;;;;6175982;23;20031;-77
2023/01/16 00:21:30;;;;;;;10.82;5.78;;;;;;;;;;6193092;23;20020;-78
2023/01/16 00:23:57;;;;;;;7.63;5.80;;;;;;;;;;6170902;23;20016;-78
2023/01/16 00:26:24;;;;;;;10.20;5.75;;;;;;;;;;6219677;23;20031;-77
2023/01/16 00:28:50;;;;;;;9.15;4.80;;;;;;;;;;6221130;23;20052;-76
2023/01/16 00:31:17;;;;;;;8.02;5.78;;;;;;;;;;6183724;23;20043;-77
2023/01/16 00:33:43;;;;;;;10.65;6.55;;;;;;;;;;6220471;23;20790;-76
2023/01/16 00:36:10;;;;;;;10.73;6.70;;;;;;;;;;6174162;23;20066;-77
2023/01/16 00:38:36;;;;;;;11.48;6.53;;;;;;;;;;6227825;23;20027;-77
2023/01/16 00:41:03;;;;;;;10.80;6.38;;;;;;;;;;6228189;23;20019;-77
2023/01/16 00:43:29;;;;;;;10.60;6.20;;;;;;;;;;6230689;23;20091;-77
2023/01/16 00:45:56;;;;;;;10.38;5.90;;;;;;;;;;6213972;23;20019;-77
2023/01/16 00:48:22;;;;;;;8.23;5.47;;;;;;;;;;6210471;23;20017;-77
2023/01/16 00:50:49;;;;;;;11.43;6.65;;;;;;;;;;6229534;23;20104;-76
2023/01/16 00:53:15;;;;;;;12.93;5.70;;;;;;;;;;6221975;22;20019;-76
2023/01/16 00:55:41;;;;;;;10.55;6.53;;;;;;;;;;6256944;22;20046;-76
2023/01/16 00:58:11;;;;;;;11.63;6.50;;;;;;;;;;6223468;23;20407;-76
2023/01/16 01:00:37;;;;;;;11.15;5.75;;;;;;;;;;6199205;23;20030;-77
2023/01/16 01:03:04;;;;;;;9.52;4.97;;;;;;;;;;6201184;23;20587;-76
2023/01/16 01:05:31;;;;;;;10.27;6.18;;;;;;;;;;6227153;23;20490;-76
2023/01/16 01:07:57;;;;;;;9.30;5.38;;;;;;;;;;6227769;23;20015;-76
2023/01/16 01:10:23;;;;;;;12.40;4.68;;;;;;;;;;6228609;23;20526;-77
2023/01/16 01:12:49;;;;;;;9.18;5.07;;;;;;;;;;6226028;23;20054;-77
2023/01/16 01:15:15;;;;;;;10.48;4.82;;;;;;;;;;6228501;23;20020;-77
2023/01/16 01:17:41;;;;;;;5.97;4.90;;;;;;;;;;6226856;22;20062;-77
2023/01/16 01:20:08;;;;;;;7.90;4.55;;;;;;;;;;6227187;23;20038;-76
2023/01/16 01:22:34;;;;;;;7.28;4.68;;;;;;;;;;6203081;23;20020;-76
2023/01/16 01:25:00;;;;;;;6.53;4.00;;;;;;;;;;6228020;23;20060;-77
2023/01/16 01:27:26;;;;;;;8.02;4.60;;;;;;;;;;6228306;23;20059;-76
2023/01/16 01:29:52;;;;;;;8.77;4.53;;;;;;;;;;6201842;23;20023;-77
2023/01/16 01:32:18;;;;;;;8.45;4.35;;;;;;;;;;6226813;23;20745;-76
2023/01/16 01:34:44;;;;;;;9.52;4.50;;;;;;;;;;6227333;23;20124;-77
2023/01/16 01:37:10;;;;;;;7.78;4.25;;;;;;;;;;6176817;23;20020;-76
2023/01/16 01:39:36;;;;;;;10.95;5.22;;;;;;;;;;6176364;23;20024;-78
2023/01/16 01:44:57;;;;;;;7.95;4.50;;;;;;;;;;6227873;23;20035;-77
2023/01/16 01:47:31;;;;;;;9.70;5.03;;;;;;;;;;6226611;23;20750;-77
2023/01/16 01:49:58;;;;;;;8.53;4.23;;;;;;;;;;6226588;23;20363;-77
2023/01/16 01:52:24;;;;;;;12.10;5.47;;;;;;;;;;6228427;23;20247;-77
2023/01/16 01:54:52;;;;;;;10.73;5.10;;;;;;;;;;6201402;23;20152;-77
2023/01/16 01:57:21;;;;;;;8.45;4.60;;;;;;;;;;6201205;23;20753;-77
2023/01/16 01:59:53;;;;;;;12.30;4.82;;;;;;;;;;6227111;23;20016;-76
2023/01/16 02:02:21;;;;;;;8.63;4.57;;;;;;;;;;6223903;23;20020;-77
2023/01/16 02:04:49;;;;;;;9.30;3.88;;;;;;;;;;6226059;23;20020;-77
2023/01/16 02:07:16;;;;;;;13.73;4.60;;;;;;;;;;6198904;23;20031;-77
2023/01/16 02:09:43;;;;;;;8.13;4.30;;;;;;;;;;6225657;23;20024;-77
2023/01/16 02:12:10;;;;;;;8.98;4.35;;;;;;;;;;6200067;23;20341;-77
2023/01/16 02:14:38;;;;;;;9.23;4.30;;;;;;;;;;6225618;23;20438;-77
2023/01/16 02:20:09;;;;;;;8.18;4.10;;;;;;;;;;6226190;23;20136;-77
2023/01/16 02:22:54;;;;;;;8.00;4.55;;;;;;;;;;6195313;23;20016;-76
2023/01/16 02:25:27;;;;;;;8.23;4.47;;;;;;;;;;6211107;23;20028;-77
2023/01/16 02:28:04;;;;;;;9.30;4.00;;;;;;;;;;6223579;23;20023;-77
2023/01/16 02:30:33;;;;;;;12.02;4.20;;;;;;;;;;6232680;23;20012;-77
2023/01/16 02:33:08;;;;;;;12.00;4.25;;;;;;;;;;6241595;23;20024;-77
2023/01/16 02:35:43;;;;;;;8.35;4.00;;;;;;;;;;6241952;23;20117;-76
2023/01/16 02:38:18;;;;;;;7.70;3.55;;;;;;;;;;6203009;23;20054;-76
2023/01/16 02:41:14;;;;;;;10.73;4.10;;;;;;;;;;6257689;22;20020;-75
2023/01/16 02:43:43;;;;;;;7.45;3.45;;;;;;;;;;6190084;23;20111;-76
2023/01/16 02:46:15;;;;;;;10.55;3.70;;;;;;;;;;6225659;23;20023;-76
2023/01/16 02:48:48;;;;;;;9.68;4.13;;;;;;;;;;6226903;22;20047;-77
2023/01/16 02:51:14;;;;;;;10.07;4.77;;;;;;;;;;6226386;23;20106;-77
2023/01/16 02:53:59;;;;;;;8.52;4.45;;;;;;;;;;6224940;23;20020;-77
2023/01/16 02:56:41;;;;;;;13.20;5.13;;;;;;;;;;6224933;23;20019;-77
2023/01/16 02:59:08;;;;;;;16.90;5.50;;;;;;;;;;6199142;23;20154;-76
2023/01/16 03:01:38;;;;;;;13.45;5.35;;;;;;;;;;6200894;23;20123;-77
2023/01/16 03:04:06;;;;;;;14.73;5.47;;;;;;;;;;6199392;23;20016;-77
2023/01/16 03:06:32;;;;;;;10.50;4.75;;;;;;;;;;6226438;23;20397;-77
2023/01/16 03:09:04;;;;;;;10.25;5.07;;;;;;;;;;6201303;23;20016;-77
2023/01/16 03:11:32;;;;;;;13.85;5.95;;;;;;;;;;6226594;23;20023;-77
2023/01/16 03:14:06;;;;;;;13.25;4.18;;;;;;;;;;6224915;23;20462;-77
2023/01/16 03:16:58;;;;;;;7.20;3.33;;;;;;;;;;6226245;23;20023;-77
2023/01/16 03:19:34;;;;;;;8.35;2.97;;;;;;;;;;6139231;23;20482;-77
2023/01/16 03:22:10;;;;;;;11.48;3.75;;;;;;;;;;6170864;23;20021;-77
2023/01/16 03:24:42;;;;;;;8.13;3.50;;;;;;;;;;6226837;23;20028;-77
2023/01/16 03:27:08;;;;;;;14.90;3.45;;;;;;;;;;6225181;23;20613;-76
2023/01/16 03:29:52;;;;;;;10.45;3.28;;;;;;;;;;6198709;23;20012;-77
2023/01/16 03:32:24;;;;;;;8.55;2.97;;;;;;;;;;6225063;23;20345;-77
2023/01/16 03:35:02;;;;;;;13.63;2.97;;;;;;;;;;6195348;23;20012;-76
2023/01/16 03:37:54;;;;;;;8.40;2.97;;;;;;;;;;6184294;23;20078;-78
2023/01/16 03:40:31;;;;;;;9.77;3.15;;;;;;;;;;6179994;23;20425;-77
2023/01/16 03:43:01;;;;;;;8.45;3.40;;;;;;;;;;6170926;23;20021;-77
2023/01/16 03:45:40;;;;;;;7.43;2.90;;;;;;;;;;6175298;23;20368;-77
2023/01/16 03:48:10;;;;;;;7.53;3.17;;;;;;;;;;6174434;23;20480;-77
2023/01/16 03:50:36;;;;;;;6.55;3.05;;;;;;;;;;6224673;23;20079;-77
2023/01/16 03:53:06;;;;;;;9.23;3.33;;;;;;;;;;6224857;23;20012;-75
2023/01/16 03:55:34;;;;;;;7.68;3.20;;;;;;;;;;6224311;23;20016;-76
2023/01/16 03:58:06;;;;;;;5.25;2.95;;;;;;;;;;6224266;23;20012;-76
2023/01/16 04:00:39;;;;;;;10.93;3.40;;;;;;;;;;6224648;23;20115;-76
2023/01/16 04:03:08;;;;;;;7.57;3.25;;;;;;;;;;6200687;23;20016;-76
2023/01/16 04:05:41;;;;;;;11.70;2.70;;;;;;;;;;6225451;23;20020;-76
2023/01/16 04:08:13;;;;;;;12.20;3.20;;;;;;;;;;6225601;23;20047;-78
2023/01/16 04:10:41;;;;;;;8.82;2.80;;;;;;;;;;6226873;23;20047;-77
2023/01/16 04:13:08;;;;;;;9.45;2.65;;;;;;;;;;6229188;23;20369;-77
2023/01/16 04:15:36;;;;;;;7.15;2.60;;;;;;;;;;6179667;23;20120;-77
2023/01/16 04:18:02;;;;;;;10.50;3.17;;;;;;;;;;6190535;23;20016;-78
2023/01/16 04:20:29;;;;;;;8.77;2.42;;;;;;;;;;6214073;23;20016;-77
2023/01/16 04:22:55;;;;;;;12.55;2.92;;;;;;;;;;6247744;23;20016;-78
2023/01/16 04:25:21;;;;;;;10.43;2.95;;;;;;;;;;6253873;22;20066;-77
2023/01/16 04:27:47;;;;;;;8.25;3.05;;;;;;;;;;6244122;22;20043;-77
2023/01/16 04:30:15;;;;;;;8.73;2.83;;;;;;;;;;6175724;23;20027;-77
2023/01/16 04:32:41;;;;;;;11.15;4.60;;;;;;;;;;6150624;23;20162;-77
2023/01/16 04:35:07;;;;;;;10.88;3.00;;;;;;;;;;6201330;23;20020;-78
2023/01/16 04:37:33;;;;;;;7.45;2.65;;;;;;;;;;6201030;23;20019;-78
2023/01/16 04:39:59;;;;;;;9.43;3.63;;;;;;;;;;6174769;23;20103;-78
2023/01/16 04:42:26;;;;;;;9.27;4.30;;;;;;;;;;6226182;23;20019;-78
2023/01/16 04:44:52;;;;;;;9.65;3.78;;;;;;;;;;6175696;23;20020;-76
2023/01/16 04:47:18;;;;;;;8.20;3.10;;;;;;;;;;6151012;23;20050;-77
2023/01/16 04:49:44;;;;;;;7.13;3.25;;;;;;;;;;6226713;23;20016;-78
2023/01/16 04:52:12;;;;;;;13.07;5.18;;;;;;;;;;6225716;23;20020;-77
2023/01/16 04:54:38;;;;;;;9.32;4.28;;;;;;;;;;6222337;23;20028;-78
2023/01/16 04:57:04;;;;;;;8.75;3.40;;;;;;;;;;6174332;23;20023;-78
2023/01/16 04:59:30;;;;;;;8.88;4.22;;;;;;;;;;6174473;23;20496;-78
2023/01/16 05:01:57;;;;;;;5.15;4.07;;;;;;;;;;6175165;23;20027;-78
2023/01/16 05:04:23;;;;;;;8.10;4.25;;;;;;;;;;6173742;23;20024;-78
2023/01/16 05:06:49;;;;;;;9.20;5.22;;;;;;;;;;6227419;23;20028;-78
2023/01/16 05:09:15;;;;;;;8.05;3.78;;;;;;;;;;6179298;23;20026;-79
2023/01/16 05:11:41;;;;;;;10.05;3.70;;;;;;;;;;6184643;23;20074;-80
2023/01/16 05:14:10;;;;;;;9.75;4.13;;;;;;;;;;6232774;23;20023;-80
2023/01/16 05:16:36;;;;;;;8.57;4.43;;;;;;;;;;6195430;23;20016;-80
2023/01/16 05:19:02;;;;;;;11.77;4.40;;;;;;;;;;6247905;22;20164;-80
2023/01/16 05:21:28;;;;;;;8.73;4.45;;;;;;;;;;6239922;23;20051;-80
2023/01/16 05:23:55;;;;;;;10.18;4.15;;;;;;;;;;6179329;23;20024;-80
2023/01/16 05:26:21;;;;;;;12.80;4.18;;;;;;;;;;6204843;23;20019;-80
2023/01/16 05:28:47;;;;;;;7.90;4.53;;;;;;;;;;6154065;23;20051;-78
2023/01/16 05:31:13;;;;;;;10.18;4.63;;;;;;;;;;6229101;23;20035;-79
2023/01/16 05:33:39;;;;;;;7.20;4.40;;;;;;;;;;6204900;23;20051;-79
2023/01/16 05:36:05;;;;;;;8.40;4.13;;;;;;;;;;6230212;23;20055;-79
2023/01/16 05:38:31;;;;;;;8.23;4.55;;;;;;;;;;6228039;23;20086;-79
2023/01/16 05:40:57;;;;;;;6.82;4.30;;;;;;;;;;6178539;23;20016;-79
2023/01/16 05:43:23;;;;;;;10.60;4.88;;;;;;;;;;6227903;23;20020;-78
2023/01/16 05:45:49;;;;;;;9.70;5.13;;;;;;;;;;6203801;23;20509;-78
2023/01/16 05:48:15;;;;;;;11.85;5.75;;;;;;;;;;6229079;23;20024;-79
2023/01/16 05:50:41;;;;;;;9.15;5.10;;;;;;;;;;6230080;23;20091;-78
2023/01/16 05:53:08;;;;;;;10.75;6.15;;;;;;;;;;6234151;23;20071;-79
2023/01/16 05:55:44;;;;;;;18.42;6.57;;;;;;;;;;6193677;23;20062;-78
2023/01/16 05:58:11;;;;;;;13.10;6.53;;;;;;;;;;6245375;23;20012;-78
2023/01/16 06:00:38;;;;;;;10.40;6.50;;;;;;;;;;6256980;22;20019;-78
2023/01/16 06:03:04;;;;;;;14.85;6.30;;;;;;;;;;6233509;22;20028;-78
2023/01/16 06:05:30;;;;;;;11.75;6.10;;;;;;;;;;6192184;23;20024;-78
2023/01/16 06:07:56;;;;;;;13.40;6.53;;;;;;;;;;6229267;23;20450;-78
2023/01/16 06:10:23;;;;;;;13.20;6.95;;;;;;;;;;6181276;23;20461;-79
2023/01/16 06:12:49;;;;;;;14.07;7.05;;;;;;;;;;6230452;23;20133;-79
2023/01/16 06:15:15;;;;;;;21.95;9.45;;;;;;;;;;6179886;23;20023;-80
2023/01/16 06:17:41;;;;;;;14.55;7.97;;;;;;;;;;6179699;23;20078;-79
2023/01/16 06:20:09;;;;;;;17.73;8.45;;;;;;;;;;6229265;23;20020;-80
2023/01/16 06:22:35;;;;;;;15.90;7.60;;;;;;;;;;6154794;23;20353;-79
2023/01/16 06:25:01;;;;;;;14.82;8.63;;;;;;;;;;6179520;23;20063;-80
2023/01/16 06:27:27;;;;;;;17.30;9.23;;;;;;;;;;6180568;23;20022;-80
2023/01/16 06:29:53;;;;;;;18.83;9.38;;;;;;;;;;6205824;23;20016;-80
2023/01/16 06:32:19;;;;;;;18.08;9.20;;;;;;;;;;6155213;23;20023;-80
2023/01/16 06:34:45;;;;;;;17.08;9.43;;;;;;;;;;6204878;23;20012;-80
2023/01/16 06:37:12;;;;;;;18.15;9.63;;;;;;;;;;6230570;23;20020;-80
2023/01/16 06:39:40;;;;;;;14.93;9.35;;;;;;;;;;6232714;23;21007;-80
2023/01/16 06:42:07;;;;;;;20.65;10.55;;;;;;;;;;6206304;23;20055;-79
2023/01/16 06:44:33;;;;;;;16.13;10.13;;;;;;;;;;6182335;23;20038;-80
2023/01/16 06:47:00;;;;;;;17.40;10.90;;;;;;;;;;6179624;22;20024;-80
2023/01/16 06:49:26;;;;;;;22.00;12.98;;;;;;;;;;6227955;23;20020;-80
2023/01/16 06:51:53;;;;;;;19.92;12.25;;;;;;;;;;6180427;23;20020;-80
2023/01/16 06:54:19;;;;;;;20.55;11.85;;;;;;;;;;6180828;23;20016;-80
2023/01/16 06:56:45;;;;;;;21.45;12.63;;;;;;;;;;6229768;23;20128;-80
2023/01/16 06:59:11;;;;;;;20.33;12.35;;;;;;;;;;6154825;23;20026;-79
2023/01/16 07:01:37;;;;;;;21.95;12.63;;;;;;;;;;6204863;23;20024;-79
2023/01/16 07:04:03;;;;;;;17.40;11.57;;;;;;;;;;6230031;23;20012;-80
2023/01/16 07:06:30;;;;;;;18.77;11.45;;;;;;;;;;6180720;23;20091;-80
2023/01/16 07:08:56;;;;;;;18.58;11.98;;;;;;;;;;6182301;23;20455;-80
2023/01/16 07:11:22;;;;;;;22.98;12.75;;;;;;;;;;6187625;23;20012;-81
2023/01/16 07:22:34;;;;;;;22.60;13.60;;;;;;;;;;6192193;23;20325;-80
2023/01/16 07:24:55;;;;;;;29.70;15.23;;;;;;;;;;6210157;23;20035;-80
2023/01/16 07:27:21;;;;;;;28.65;14.95;;;;;;;;;;6181024;23;20099;-80
2023/01/16 07:29:47;;;;;;;27.25;15.07;;;;;;;;;;6182883;23;20135;-80
2023/01/16 07:32:14;;;;;;;29.10;15.52;;;;;;;;;;6241734;23;20008;-80
2023/01/16 07:34:40;;;;;;;23.98;14.88;;;;;;;;;;6162077;23;20102;-81
2023/01/16 07:37:07;;;;;;;23.60;14.45;;;;;;;;;;6245323;22;20020;-80
2023/01/16 07:39:33;;;;;;;24.35;13.10;;;;;;;;;;6207947;23;20052;-83
2023/01/16 07:42:03;;;;;;;22.35;12.25;;;;;;;;;;6244687;22;20024;-80
2023/01/16 07:44:29;;;;;;;25.80;12.48;;;;;;;;;;6232530;23;20016;-81
2023/01/16 07:46:55;;;;;;;25.40;11.52;;;;;;;;;;6152596;23;20075;-80
2023/01/16 07:49:22;;;;;;;26.77;12.18;;;;;;;;;;6179362;23;20417;-80
2023/01/16 07:51:48;;;;;;;19.92;11.45;;;;;;;;;;6180457;23;20020;-79
2023/01/16 07:54:14;;;;;;;22.15;12.05;;;;;;;;;;6180124;23;20048;-80
2023/01/16 07:56:40;;;;;;;18.73;10.70;;;;;;;;;;6180389;23;20044;-79
2023/01/16 07:59:06;;;;;;;24.58;11.05;;;;;;;;;;6229464;23;20023;-79
2023/01/16 08:01:32;;;;;;;19.55;11.88;;;;;;;;;;6178209;23;20022;-79
2023/01/16 08:03:58;;;;;;;25.58;11.32;;;;;;;;;;6179671;23;20370;-80
2023/01/16 08:06:24;;;;;;;24.02;11.32;;;;;;;;;;6178884;23;20016;-80
2023/01/16 08:08:51;;;;;;;24.48;10.52;;;;;;;;;;6179366;23;20044;-80
2023/01/16 08:14:01;;;;;;;;;;;;;;;;;;6182456;23;20055;-79
2023/01/16 08:16:27;;;;;;;20.92;10.32;;;;;;;;;;6205473;23;20444;-80
2023/01/16 08:18:53;;;;;;;20.35;9.60;;;;;;;;;;6182270;23;20708;-80
2023/01/16 08:21:20;;;;;;;23.13;8.60;;;;;;;;;;6203976;23;20529;-80
2023/01/16 08:23:46;;;;;;;16.45;8.30;;;;;;;;;;6203009;23;20027;-80
2023/01/16 08:26:12;;;;;;;15.60;8.73;;;;;;;;;;6228268;23;20504;-79
2023/01/16 08:28:39;;;;;;;15.25;8.95;;;;;;;;;;6203224;23;20080;-80
2023/01/16 08:31:08;;;;;;;18.88;9.32;;;;;;;;;;6203277;23;20027;-79
2023/01/16 08:33:39;;;;;;;22.10;9.85;;;;;;;;;;6196876;23;20020;-80
2023/01/16 08:36:06;;;;;;;17.27;9.88;;;;;;;;;;6199438;23;20024;-79
2023/01/16 08:38:32;;;;;;;16.17;9.40;;;;;;;;;;6176318;23;20016;-79
2023/01/16 08:40:59;;;;;;;25.27;9.65;;;;;;;;;;6229187;23;20607;-80
2023/01/16 08:52:00;;;;;;;19.05;9.07;;;;;;;;;;6227075;23;20151;-79
2023/01/16 08:54:26;;;;;;;17.52;8.70;;;;;;;;;;6202068;23;20074;-79
2023/01/16 08:56:52;;;;;;;17.05;9.38;;;;;;;;;;6178037;23;20009;-79
2023/01/16 08:59:21;;;;;;;15.38;8.70;;;;;;;;;;6153755;23;20089;-80
2023/01/16 09:01:47;;;;;;;19.15;9.40;;;;;;;;;;6178315;23;20027;-80
2023/01/16 09:04:13;;;;;;;17.00;8.57;;;;;;;;;;6206674;23;20020;-80
2023/01/16 09:06:39;;;;;;;16.33;7.88;;;;;;;;;;6185890;23;20488;-80
2023/01/16 09:09:06;;;;;;;12.07;7.60;;;;;;;;;;6242805;23;20012;-80
2023/01/16 09:14:20;;;;;;;18.25;8.27;;;;;;;;;;6259217;22;20012;-80
2023/01/16 09:16:46;;;;;;;14.65;7.47;;;;;;;;;;6262566;23;20024;-79
2023/01/16 09:19:12;;;;;;;14.00;6.78;;;;;;;;;;6195348;23;20337;-79
2023/01/16 09:21:39;;;;;;;14.05;7.38;;;;;;;;;;6247420;23;20183;-79
2023/01/16 09:24:05;;;;;;;12.45;7.88;;;;;;;;;;6198120;23;20082;-81
2023/01/16 09:26:31;;;;;;;15.20;8.00;;;;;;;;;;6230544;23;20508;-80
2023/01/16 09:28:57;;;;;;;13.40;8.07;;;;;;;;;;6178982;23;20548;-80
2023/01/16 09:31:23;;;;;;;12.20;7.63;;;;;;;;;;6229709;23;20024;-80
2023/01/16 09:33:52;;;;;;;15.85;8.15;;;;;;;;;;6178204;23;20475;-80
2023/01/16 09:36:18;;;;;;;13.50;7.15;;;;;;;;;;6200549;23;20020;-81
2023/01/16 09:38:44;;;;;;;20.58;9.27;;;;;;;;;;6166428;23;20020;-80
2023/01/16 09:43:35;;;;;;;19.67;8.80;;;;;;;;;;6203427;23;20020;-80
2023/01/16 09:44:01;;;;;;;18.73;9.50;;;;;;;;;;6204044;23;20020;-80
2023/01/16 09:46:28;;;;;;;18.02;8.90;;;;;;;;;;6205076;23;20016;-80
2023/01/16 09:49:02;;;;;;;18.05;8.55;;;;;;;;;;6205883;23;20022;-80
2023/01/16 09:58:34;;;;;;;17.17;8.77;;;;;;;;;;6232649;23;20017;-78
2023/01/16 10:00:05;;;;;;;19.75;9.52;;;;;;;;;;6230247;23;20055;-80
2023/01/16 10:02:34;;;;;;;15.52;8.07;;;;;;;;;;6200264;23;20754;-80
2023/01/16 10:05:04;;;;;;;15.68;7.43;;;;;;;;;;6174363;23;20094;-80
2023/01/16 10:07:43;;;;;;;11.43;7.35;;;;;;;;;;6230318;23;20020;-80
2023/01/16 10:10:28;;;;;;;18.65;7.45;;;;;;;;;;6203595;23;20016;-80
2023/01/16 10:13:00;;;;;;;11.75;6.25;;;;;;;;;;6231590;23;20016;-79
2023/01/16 10:15:30;;;;;;;11.98;6.47;;;;;;;;;;6233794;23;20016;-80
2023/01/16 10:17:56;;;;;;;21.98;6.50;;;;;;;;;;6205099;23;20446;-80
2023/01/16 10:20:22;;;;;;;15.85;6.80;;;;;;;;;;6207255;23;20023;-80
2023/01/16 10:22:57;;;;;;;10.00;5.65;;;;;;;;;;6230619;23;20016;-80
2023/01/16 10:25:28;;;;;;;17.30;8.05;;;;;;;;;;6205407;23;20657;-80
2023/01/16 10:27:54;;;;;;;12.77;5.97;;;;;;;;;;6200412;23;20028;-80
2023/01/16 10:30:26;;;;;;;13.73;6.10;;;;;;;;;;6229966;23;20043;-80
2023/01/16 10:33:18;;;;;;;11.63;5.55;;;;;;;;;;6205232;23;20016;-79
2023/01/16 10:35:46;;;;;;;14.13;7.00;;;;;;;;;;6198984;23;20011;-79
2023/01/16 10:49:25;;;;;;;10.63;5.20;;;;;;;;;;6230626;23;20024;-79
2023/01/16 10:49:29;;;;;;;12.48;6.13;;;;;;;;;;6245509;23;20047;-78
2023/01/16 10:51:56;;;;;;;11.63;6.15;;;;;;;;;;6254745;22;20035;-78
2023/01/16 10:54:23;;;;;;;15.48;6.38;;;;;;;;;;6246364;22;20054;-78
2023/01/16 10:56:49;;;;;;;13.23;4.95;;;;;;;;;;6203479;23;20012;-78
2023/01/16 10:59:15;;;;;;;13.75;6.68;;;;;;;;;;6178272;23;20052;-78
2023/01/16 11:01:42;;;;;;;12.48;5.45;;;;;;;;;;6177179;23;20123;-78
2023/01/16 11:04:12;;;;;;;13.07;5.70;;;;;;;;;;6178296;23;20026;-78
2023/01/16 11:06:41;;;;;;;10.10;4.72;;;;;;;;;;6203908;23;20405;-79
2023/01/16 11:09:08;;;;;;;11.70;4.80;;;;;;;;;;6202423;23;20028;-80
2023/01/16 11:20:17;;;;;;;4.90;3.10;;;;;;;;;;6236666;23;20425;-80
2023/01/16 11:22:45;;;;;;;8.68;3.50;;;;;;;;;;6242076;23;20016;-79
2023/01/16 11:25:20;;;;;;;5.32;2.50;;;;;;;;;;6243962;23;20485;-79
2023/01/16 11:27:47;;;;;;;3.97;2.17;;;;;;;;;;6203314;23;20022;-79
2023/01/16 11:30:21;;;;;;;4.70;2.35;;;;;;;;;;6175788;23;20024;-79
2023/01/16 11:32:48;;;;;;;6.80;2.13;;;;;;;;;;6195405;23;20032;-79
2023/01/16 11:35:15;;;;;;;4.38;1.95;;;;;;;;;;6225777;23;20015;-78
2023/01/16 11:37:44;;;;;;;7.45;2.10;;;;;;;;;;6224877;23;20018;-78
2023/01/16 11:40:17;;;;;;;2.15;1.92;;;;;;;;;;6198281;23;20043;-77
2023/01/16 11:46:02;;;;;;;3.42;1.75;;;;;;;;;;6227484;23;20024;-77
2023/01/16 11:48:29;;;;;;;3.80;2.20;;;;;;;;;;6177906;23;20020;-78
2023/01/16 11:50:58;;;;;;;5.32;2.25;;;;;;;;;;6226851;23;20028;-77
2023/01/16 11:53:32;;;;;;;5.20;2.63;;;;;;;;;;6227217;23;20852;-76
2023/01/16 11:56:10;;;;;;;4.65;2.53;;;;;;;;;;6227216;23;20497;-76
2023/01/16 11:58:43;;;;;;;7.70;2.90;;;;;;;;;;6177728;23;20354;-76
2023/01/16 12:01:27;;;;;;;12.90;5.03;;;;;;;;;;6227788;23;20027;-76
2023/01/16 12:04:20;;;;;;;11.55;4.00;;;;;;;;;;6202488;23;20018;-76
2023/01/16 12:07:05;;;;;;;12.50;4.05;;;;;;;;;;6197891;23;20023;-76
2023/01/16 12:09:35;;;;;;;9.55;5.30;;;;;;;;;;6203470;23;20024;-76
2023/01/16 12:15:07;;;;;;;9.18;4.95;;;;;;;;;;6226331;23;20103;-77
2023/01/16 12:17:57;;;;;;;14.27;5.80;;;;;;;;;;6178656;23;20012;-77
2023/01/16 12:20:34;;;;;;;8.02;3.97;;;;;;;;;;6134638;23;20020;-76
2023/01/16 12:23:00;;;;;;;6.78;3.13;;;;;;;;;;6180076;23;20017;-76
2023/01/16 12:25:30;;;;;;;9.98;4.60;;;;;;;;;;6235100;23;20012;-76
2023/01/16 12:28:16;;;;;;;8.30;4.20;;;;;;;;;;6230934;23;20020;-77
2023/01/16 12:31:00;;;;;;;13.55;7.13;;;;;;;;;;6201325;23;20433;-76
2023/01/16 12:33:42;;;;;;;7.47;3.95;;;;;;;;;;6228452;23;20016;-77
2023/01/16 12:36:14;;;;;;;8.32;4.55;;;;;;;;;;6180525;23;20095;-76
2023/01/16 12:38:48;;;;;;;9.02;5.47;;;;;;;;;;6227189;23;20016;-77
2023/01/16 12:44:06;;;;;;;11.77;4.68;;;;;;;;;;6229025;23;20024;-76
2023/01/16 12:46:38;;;;;;;6.68;4.03;;;;;;;;;;6230137;23;20016;-76
2023/01/16 12:49:18;;;;;;;3.85;3.08;;;;;;;;;;6207661;23;20024;-77
2023/01/16 12:51:54;;;;;;;9.48;6.55;;;;;;;;;;6180570;23;20345;-77
2023/01/16 12:54:23;;;;;;;8.57;5.72;;;;;;;;;;6234068;23;20468;-79
2023/01/16 12:56:52;;;;;;;9.18;7.53;;;;;;;;;;6183380;23;20051;-78
2023/01/16 12:59:21;;;;;;;8.40;4.68;;;;;;;;;;6201965;23;20023;-77
2023/01/16 13:01:50;;;;;;;7.05;4.07;;;;;;;;;;6233027;23;20090;-78
2023/01/16 13:04:30;;;;;;;3.63;3.30;;;;;;;;;;6165540;23;20790;-78
2023/01/16 13:06:57;;;;;;;6.38;4.93;;;;;;;;;;6179522;23;20069;-78
2023/01/16 13:09:35;;;;;;;9.43;6.72;;;;;;;;;;6233800;23;20104;-77
2023/01/16 13:14:51;;;;;;;8.05;5.78;;;;;;;;;;6235211;23;20080;-79
2023/01/16 13:17:20;;;;;;;4.47;3.40;;;;;;;;;;6186817;23;20016;-80
2023/01/16 13:19:47;;;;;;;6.65;5.05;;;;;;;;;;6240542;23;20529;-78
2023/01/16 13:22:26;;;;;;;11.55;8.23;;;;;;;;;;6238748;23;20716;-78
2023/01/16 13:24:52;;;;;;;11.80;6.35;;;;;;;;;;6239476;23;20822;-79
2023/01/16 13:27:21;;;;;;;8.00;5.13;;;;;;;;;;6240062;23;20467;-78
2023/01/16 13:29:51;;;;;;;13.07;6.85;;;;;;;;;;6237791;23;20024;-79
2023/01/16 13:32:29;;;;;;;7.00;3.83;;;;;;;;;;6235288;23;20030;-78
2023/01/16 13:35:02;;;;;;;5.18;4.28;;;;;;;;;;6235070;23;20086;-80
2023/01/16 13:37:36;;;;;;;7.13;5.53;;;;;;;;;;6237461;23;20043;-79
2023/01/16 13:40:02;;;;;;;;;;;;;;;;;;6208017;23;20091;-78
2023/01/16 13:42:29;;;;;;;8.05;5.10;;;;;;;;;;6183133;23;19919;-79
2023/01/16 13:47:44;;;;;;;21.25;12.60;;;;;;;;;;6211712;23;20406;-80
2023/01/16 13:50:16;;;;;;;16.25;9.45;;;;;;;;;;6185810;23;20030;-80
2023/01/16 13:52:43;;;;;;;11.82;7.45;;;;;;;;;;6213585;23;20020;-79
2023/01/16 13:55:43;;;;;;;10.95;7.43;;;;;;;;;;6235974;23;20054;-79
2023/01/16 13:58:23;;;;;;;8.27;5.55;;;;;;;;;;6137822;23;20021;-79
2023/01/16 14:00:59;;;;;;;6.85;4.68;;;;;;;;;;6234916;23;20024;-79
2023/01/16 14:03:27;;;;;;;5.57;3.80;;;;;;;;;;6186532;23;20020;-80
2023/01/16 14:05:53;;;;;;;7.68;4.95;;;;;;;;;;6193445;23;20118;-78
2023/01/16 14:11:48;;;;;;;4.50;4.10;;;;;;;;;;6253244;22;20024;-78
2023/01/16 14:14:14;;;;;;;;;;;;;;;;;;6207034;23;20020;-78
2023/01/16 14:16:41;;;;;;;7.70;5.07;;;;;;;;;;6222647;23;20040;-79
2023/01/16 14:19:16;;;;;;;8.82;6.32;;;;;;;;;;6205679;23;20019;-77
2023/01/16 14:24:37;;;;;;;6.15;4.32;;;;;;;;;;6161757;23;20016;-76
2023/01/16 14:27:03;;;;;;;5.22;4.05;;;;;;;;;;6231000;23;20407;-77
2023/01/16 14:29:29;;;;;;;5.63;3.90;;;;;;;;;;6182214;23;20016;-77
2023/01/16 14:32:03;;;;;;;8.38;3.72;;;;;;;;;;6182393;23;20016;-77
2023/01/16 14:34:35;;;;;;;7.30;4.25;;;;;;;;;;6232839;23;20016;-77
2023/01/16 14:37:06;;;;;;;18.55;9.52;;;;;;;;;;6204555;23;20020;-76
2023/01/16 14:39:41;;;;;;;9.07;6.10;;;;;;;;;;6233034;23;20047;-78
2023/01/16 14:56:38;;;;;;;12.60;9.18;;;;;;;;;;6207094;23;19922;-77
2023/01/16 14:59:22;;;;;;;11.63;7.20;;;;;;;;;;6234845;23;20065;-76
2023/01/16 15:02:19;;;;;;;9.27;6.35;;;;;;;;;;6208076;23;20023;-77
2023/01/16 15:04:56;;;;;;;8.00;7.18;;;;;;;;;;6184865;23;20012;-77
2023/01/16 15:07:41;;;;;;;12.60;8.15;;;;;;;;;;6179401;23;20015;-75
2023/01/16 15:10:12;;;;;;;7.65;5.90;;;;;;;;;;6197639;23;20124;-76
2023/01/16 15:12:40;;;;;;;7.63;4.70;;;;;;;;;;6177907;23;20068;-78
2023/01/16 15:15:19;;;;;;;5.20;4.70;;;;;;;;;;6232382;23;20016;-77
2023/01/16 15:23:20;;;;;;;6.13;3.60;;;;;;;;;;6231109;23;20027;-75
2023/01/16 15:25:47;;;;;;;4.72;3.13;;;;;;;;;;6204125;23;20446;-76
2023/01/16 15:28:13;;;;;;;4.68;3.67;;;;;;;;;;6228207;23;20769;-77
2023/01/16 15:30:40;;;;;;;7.03;4.15;;;;;;;;;;6180635;23;20390;-78
2023/01/16 15:36:16;;;;;;;5.00;3.38;;;;;;;;;;6230884;23;20020;-77
2023/01/16 15:38:46;;;;;;;4.10;3.13;;;;;;;;;;6230836;23;20540;-78
2023/01/16 15:41:13;;;;;;;7.38;5.03;;;;;;;;;;6181384;23;20070;-78
2023/01/16 15:46:53;;;;;;;3.03;2.72;;;;;;;;;;6238251;23;20750;-77
2023/01/16 15:49:18;;;;;;;;;;;;;;;;;;6247288;23;20097;-77
2023/01/16 15:51:52;;;;;;;5.93;3.10;;;;;;;;;;6220419;23;20303;-77
2023/01/16 15:54:18;;;;;;;3.40;2.92;;;;;;;;;;6253094;23;20003;-78
2023/01/16 15:56:45;;;;;;;6.25;4.63;;;;;;;;;;6253662;23;20016;-78
2023/01/16 15:59:23;;;;;;;6.88;4.20;;;;;;;;;;6191427;23;20042;-77
2023/01/16 16:01:49;;;;;;;5.38;3.03;;;;;;;;;;6180468;23;20024;-78
2023/01/16 16:04:15;;;;;;;9.98;6.32;;;;;;;;;;6238057;23;20031;-80
2023/01/16 16:06:42;;;;;;;7.13;5.85;;;;;;;;;;6196131;23;20027;-79
2023/01/16 16:09:18;;;;;;;5.50;2.80;;;;;;;;;;6166229;23;20024;-77
2023/01/16 16:11:55;;;;;;;5.78;3.30;;;;;;;;;;6204664;23;20107;-80
2023/01/16 16:20:26;;;;;;;5.55;2.63;;;;;;;;;;6232317;23;20082;-81
2023/01/16 16:22:54;;;;;;;6.18;2.80;;;;;;;;;;6182061;23;20017;-82
2023/01/16 16:25:26;;;;;;;6.50;3.10;;;;;;;;;;6187587;23;20015;-81
2023/01/16 16:27:53;;;;;;;3.40;3.00;;;;;;;;;;6238501;23;20023;-82
2023/01/16 16:30:24;;;;;;;5.38;3.28;;;;;;;;;;6236519;23;20026;-82
2023/01/16 16:32:51;;;;;;;4.88;2.80;;;;;;;;;;6238477;23;20035;-83
2023/01/16 16:35:19;;;;;;;5.60;3.53;;;;;;;;;;6162849;23;20177;-83